Time;durP1;ratioP1;P1;durP2;ratioP2;P2;SDS_P1;SDS_P2;PMS_P1;PMS_P2;Temp;Humidity;BMP_temperature;BMP_pressure;BME280_temperature;BME280_humidity;BME280_pressure;Samples;Min_cycle;Max_cycle;Signal;HPM_P1;HPM_P2
2021/05/31 00:01:27;;;;;;;5.32;2.00;;;;;;;17.39;53.53;100859.38;5053606;28;20064;-77
2021/05/31 00:04:31;;;;;;;4.25;1.50;;;;;;;17.40;53.71;100855.66;5053825;28;20048;-79
2021/05/31 00:07:36;;;;;;;3.10;1.83;;;;;;;17.44;53.58;100850.72;5053905;28;20380;-78
2021/05/31 00:10:42;;;;;;;4.60;2.22;;;;;;;17.45;53.28;100860.56;5052231;28;20049;-80
2021/05/31 00:13:47;;;;;;;5.68;1.95;;;;;;;17.39;52.62;100848.50;5053784;28;20068;-79
2021/05/31 00:16:51;;;;;;;7.30;2.35;;;;;;;17.40;52.56;100839.38;5054048;28;20052;-79
2021/05/31 00:19:56;;;;;;;3.45;2.00;;;;;;;17.46;52.98;100854.97;5053651;28;20077;-78
2021/05/31 00:23:01;;;;;;;3.72;1.83;;;;;;;17.44;51.84;100851.56;5054017;28;20495;-77
2021/05/31 00:26:05;;;;;;;6.13;2.30;;;;;;;17.42;51.75;100842.75;5053851;28;20052;-78
2021/05/31 00:29:10;;;;;;;3.97;1.70;;;;;;;17.46;52.78;100852.25;5053784;28;20056;-77
2021/05/31 00:32:14;;;;;;;3.42;1.50;;;;;;;17.45;54.99;100849.72;5052878;28;20487;-79
2021/05/31 00:35:19;;;;;;;8.23;1.45;;;;;;;17.40;55.97;100843.94;5053966;28;20052;-79
2021/05/31 00:38:24;;;;;;;2.80;1.73;;;;;;;17.34;55.45;100847.31;5053687;28;20056;-79
2021/05/31 00:41:28;;;;;;;4.60;2.35;;;;;;;17.22;53.10;100845.91;5053514;28;20055;-79
2021/05/31 00:44:33;;;;;;;4.63;1.75;;;;;;;17.19;51.63;100851.66;5053558;28;20056;-78
2021/05/31 00:47:37;;;;;;;3.95;1.88;;;;;;;17.08;51.25;100844.72;5053278;28;20052;-78
2021/05/31 00:50:43;;;;;;;4.18;1.70;;;;;;;17.10;51.92;100852.66;5053497;28;20112;-78
2021/05/31 00:53:47;;;;;;;5.43;1.77;;;;;;;17.00;52.18;100835.69;5053549;28;20052;-77
2021/05/31 00:56:52;;;;;;;4.88;1.70;;;;;;;17.01;52.31;100837.38;5053620;28;20120;-77
2021/05/31 00:59:57;;;;;;;5.00;1.90;;;;;;;16.85;52.46;100838.16;5053313;28;20044;-78
2021/05/31 01:03:01;;;;;;;3.95;1.58;;;;;;;16.67;52.72;100837.38;5053120;28;20483;-80
2021/05/31 01:06:07;;;;;;;4.55;2.38;;;;;;;16.59;52.98;100835.50;5052825;28;20056;-78
2021/05/31 01:09:25;;;;;;;3.03;1.40;;;;;;;16.43;53.28;100826.41;5054534;28;20048;-80
2021/05/31 01:12:39;;;;;;;2.92;1.80;;;;;;;16.37;54.67;100829.75;5057191;28;20044;-79
2021/05/31 01:16:04;;;;;;;5.22;1.52;;;;;;;16.34;55.52;100821.94;5056862;28;20063;-78
2021/05/31 01:19:46;;;;;;;4.53;2.13;;;;;;;16.31;55.38;100827.69;5056819;28;20491;-77
2021/05/31 01:22:52;;;;;;;3.50;1.70;;;;;;;16.32;55.92;100832.94;5056738;28;20059;-77
2021/05/31 01:26:11;;;;;;;3.28;1.65;;;;;;;16.20;56.32;100843.19;5056754;28;20048;-76
2021/05/31 01:29:16;;;;;;;6.95;1.90;;;;;;;16.12;56.51;100840.41;5056945;28;20060;-77
2021/05/31 01:32:25;;;;;;;2.92;1.60;;;;;;;16.26;56.47;100831.72;5056108;28;20055;-77
2021/05/31 01:35:34;;;;;;;3.47;1.60;;;;;;;16.31;54.76;100836.66;5056503;28;20067;-77
2021/05/31 01:38:40;;;;;;;3.35;1.92;;;;;;;16.18;55.36;100828.09;5044468;28;20052;-77
2021/05/31 01:41:45;;;;;;;3.38;1.70;;;;;;;16.17;56.43;100832.66;5056101;28;20048;-77
2021/05/31 01:44:50;;;;;;;3.55;1.90;;;;;;;16.24;56.26;100828.31;5056674;28;20155;-78
2021/05/31 01:47:36;;;;;;;4.80;2.03;;;;;;;16.32;57.06;100834.81;5062841;28;20052;-78
2021/05/31 01:50:27;;;;;;;5.75;2.58;;;;;;;16.23;57.33;100832.03;5062545;28;20056;-78
2021/05/31 01:53:19;;;;;;;3.55;2.05;;;;;;;16.20;57.81;100837.78;5062896;28;20052;-77
2021/05/31 01:56:26;;;;;;;3.60;1.83;;;;;;;16.18;57.57;100834.38;5054549;28;20059;-77
2021/05/31 01:59:35;;;;;;;5.80;1.90;;;;;;;16.31;57.73;100835.81;5014331;28;20053;-78
2021/05/31 02:02:43;;;;;;;4.85;1.70;;;;;;;16.30;57.14;100837.66;4956170;28;20046;-77
2021/05/31 02:05:31;;;;;;;5.80;1.85;;;;;;;16.35;56.73;100835.31;4959673;28;20054;-77
2021/05/31 02:08:36;;;;;;;5.72;1.90;;;;;;;16.43;57.51;100834.53;4956033;29;20387;-77
2021/05/31 02:12:01;;;;;;;5.60;1.85;;;;;;;16.38;57.28;100828.72;4955638;29;20058;-77
2021/05/31 02:15:02;;;;;;;3.53;1.60;;;;;;;16.47;56.32;100833.19;4956224;28;20074;-78
2021/05/31 02:18:26;;;;;;;5.13;2.00;;;;;;;16.51;56.85;100834.59;4901179;29;20056;-77
2021/05/31 02:21:22;;;;;;;5.45;1.70;;;;;;;16.53;56.80;100825.31;4898336;29;20051;-77
2021/05/31 02:24:27;;;;;;;4.55;2.03;;;;;;;16.52;54.85;100826.31;4887983;29;20056;-77
2021/05/31 02:27:33;;;;;;;10.05;2.03;;;;;;;16.53;54.70;100836.16;4898727;29;20048;-77
2021/05/31 02:30:38;;;;;;;5.13;2.10;;;;;;;16.53;54.67;100833.44;4898439;29;20055;-77
2021/05/31 02:33:47;;;;;;;4.93;2.00;;;;;;;16.56;53.90;100832.28;4898401;29;20134;-76
2021/05/31 02:36:53;;;;;;;3.97;1.80;;;;;;;16.59;54.35;100831.94;4924511;29;20559;-77
2021/05/31 02:39:58;;;;;;;3.72;1.77;;;;;;;16.62;54.12;100832.47;4973492;28;20061;-77
2021/05/31 02:43:09;;;;;;;3.78;1.90;;;;;;;16.64;52.65;100837.75;4993955;28;20065;-77
2021/05/31 02:46:13;;;;;;;4.55;2.10;;;;;;;16.52;52.77;100830.88;4993889;28;20058;-78
2021/05/31 02:49:18;;;;;;;3.50;2.05;;;;;;;16.52;53.09;100831.72;4982790;28;20045;-77
2021/05/31 02:52:22;;;;;;;4.10;1.88;;;;;;;16.55;53.20;100827.84;4982539;28;20053;-77
2021/05/31 02:55:29;;;;;;;5.07;2.08;;;;;;;16.55;53.46;100830.56;5055025;28;20055;-77
2021/05/31 02:58:33;;;;;;;3.33;2.00;;;;;;;16.50;53.66;100832.88;5054117;28;20052;-77
2021/05/31 03:01:38;;;;;;;4.03;2.25;;;;;;;16.57;53.90;100833.94;5054965;28;20051;-77
2021/05/31 03:04:43;;;;;;;4.25;2.20;;;;;;;16.44;54.33;100828.09;5054742;28;20055;-79
2021/05/31 03:07:48;;;;;;;4.18;2.00;;;;;;;16.22;56.42;100830.31;5054527;28;20056;-78
2021/05/31 03:10:54;;;;;;;3.55;2.05;;;;;;;16.08;56.43;100846.31;5054475;28;20059;-78
2021/05/31 03:13:40;;;;;;;3.95;2.13;;;;;;;15.91;56.82;100842.63;5061097;28;20385;-78
2021/05/31 03:16:25;;;;;;;5.82;2.42;;;;;;;15.87;57.67;100853.94;5060341;28;20052;-78
2021/05/31 03:19:11;;;;;;;5.90;2.10;;;;;;;15.99;57.68;100849.97;5060322;28;20071;-78
2021/05/31 03:21:56;;;;;;;2.95;1.80;;;;;;;15.95;58.88;100864.84;5060293;28;20056;-78
2021/05/31 03:25:03;;;;;;;3.97;1.80;;;;;;;15.87;58.82;100862.06;5054456;28;20048;-79
2021/05/31 03:27:48;;;;;;;3.97;1.98;;;;;;;15.65;59.80;100863.38;5054689;28;20052;-78
2021/05/31 03:30:35;;;;;;;3.05;1.77;;;;;;;15.53;60.87;100865.44;5060955;28;20047;-78
2021/05/31 03:33:21;;;;;;;5.72;2.00;;;;;;;15.41;61.22;100861.25;5059424;28;20399;-78
2021/05/31 03:36:06;;;;;;;6.40;2.00;;;;;;;15.38;61.22;100858.84;5060024;28;20491;-78
2021/05/31 03:39:10;;;;;;;5.30;1.80;;;;;;;15.23;60.95;100852.28;5053767;28;20051;-78
2021/05/31 03:42:15;;;;;;;7.75;1.73;;;;;;;15.15;61.83;100863.00;5054421;28;20380;-78
2021/05/31 03:45:20;;;;;;;5.18;1.83;;;;;;;15.27;62.01;100874.44;5053465;28;20075;-78
2021/05/31 03:48:24;;;;;;;3.15;1.88;;;;;;;15.42;61.29;100879.19;5054403;28;20048;-78
2021/05/31 03:51:28;;;;;;;6.10;1.92;;;;;;;15.50;61.38;100882.00;5053813;28;20080;-78
2021/05/31 03:54:33;;;;;;;5.88;2.13;;;;;;;15.62;60.81;100885.34;5054074;28;20060;-78
2021/05/31 03:57:38;;;;;;;4.47;1.95;;;;;;;15.75;60.57;100891.19;5054032;28;20056;-78
2021/05/31 04:00:43;;;;;;;5.65;2.08;;;;;;;15.73;60.38;100892.34;5053990;28;20056;-78
2021/05/31 04:03:47;;;;;;;4.00;1.88;;;;;;;15.83;60.58;100903.97;5053986;28;20098;-78
2021/05/31 04:07:21;;;;;;;6.00;1.92;;;;;;;15.88;60.71;100905.22;5053179;28;20048;-77
2021/05/31 04:13:44;;;;;;;6.97;1.98;;;;;;;16.04;60.49;100904.50;5076133;28;20044;-78
2021/05/31 04:16:50;;;;;;;4.30;1.95;;;;;;;16.03;60.88;100900.09;5053806;28;20108;-78
2021/05/31 04:19:55;;;;;;;4.28;2.03;;;;;;;16.09;61.37;100907.59;5053696;28;20052;-78
2021/05/31 04:22:59;;;;;;;3.38;1.85;;;;;;;16.13;61.36;100911.69;5053721;28;20068;-78
2021/05/31 04:26:04;;;;;;;5.28;2.30;;;;;;;16.16;60.72;100912.25;5052829;28;20400;-79
2021/05/31 04:29:10;;;;;;;2.90;2.05;;;;;;;16.13;60.50;100895.44;5053642;28;20052;-79
2021/05/31 04:32:14;;;;;;;4.40;2.20;;;;;;;16.17;60.81;100897.66;5052709;28;20060;-78
2021/05/31 04:35:19;;;;;;;7.28;2.17;;;;;;;16.29;60.63;100904.53;5053690;28;20483;-78
2021/05/31 04:38:24;;;;;;;7.22;2.40;;;;;;;16.32;59.72;100894.41;5053673;28;20047;-78
2021/05/31 04:41:28;;;;;;;5.43;2.80;;;;;;;16.43;58.51;100905.84;5053682;28;20052;-78
2021/05/31 04:44:34;;;;;;;6.38;3.08;;;;;;;16.41;58.36;100902.44;5056904;28;20388;-78
2021/05/31 04:47:38;;;;;;;6.22;3.58;;;;;;;16.38;57.64;100899.19;5057493;28;20072;-78
2021/05/31 04:50:42;;;;;;;9.32;3.63;;;;;;;16.35;56.96;100903.06;5056551;28;20059;-78
2021/05/31 04:53:46;;;;;;;7.55;3.33;;;;;;;16.40;56.48;100902.56;5057359;28;20056;-79
2021/05/31 04:56:51;;;;;;;4.47;3.00;;;;;;;16.56;55.78;100909.00;5057247;28;20086;-78
2021/05/31 04:59:57;;;;;;;5.38;3.58;;;;;;;16.70;55.27;100899.44;5057235;28;20056;-78
2021/05/31 05:03:01;;;;;;;13.00;11.18;;;;;;;16.72;55.45;100903.69;5057125;28;20060;-78
2021/05/31 05:06:06;;;;;;;19.08;15.68;;;;;;;16.86;55.54;100907.66;5056658;28;20044;-78
2021/05/31 05:09:10;;;;;;;10.02;7.35;;;;;;;17.18;55.08;100905.09;5057041;28;20049;-78
2021/05/31 05:12:15;;;;;;;4.28;2.70;;;;;;;17.29;55.32;100907.50;5056128;28;20055;-78
2021/05/31 05:15:23;;;;;;;4.05;2.40;;;;;;;17.17;55.53;100908.81;5056919;28;20044;-78
2021/05/31 05:18:27;;;;;;;5.10;2.45;;;;;;;17.31;55.28;100901.91;5057110;28;20052;-78
2021/05/31 05:21:32;;;;;;;6.40;2.30;;;;;;;17.53;55.04;100906.75;5056766;28;20044;-78
2021/05/31 05:24:36;;;;;;;6.90;2.92;;;;;;;18.90;52.34;100904.03;5055891;28;20044;-78
2021/05/31 05:27:42;;;;;;;6.43;2.35;;;;;;;19.86;48.91;100900.00;5056660;28;20468;-79
2021/05/31 05:30:50;;;;;;;6.63;2.58;;;;;;;19.92;48.65;100906.59;5056546;28;20388;-79
2021/05/31 05:33:55;;;;;;;4.15;2.15;;;;;;;21.07;45.64;100915.25;5056655;28;20044;-79
2021/05/31 05:37:06;;;;;;;5.32;2.08;;;;;;;23.45;40.71;100903.63;5056572;28;20044;-79
2021/05/31 05:47:01;;;;;;;3.03;1.90;;;;;;;27.51;32.98;100885.44;5055227;28;20272;-77
2021/05/31 05:50:06;;;;;;;6.00;2.40;;;;;;;28.06;32.51;100892.53;5056296;28;20393;-77
2021/05/31 05:53:11;;;;;;;3.58;2.00;;;;;;;28.91;31.13;100891.09;5055431;28;20060;-77
2021/05/31 05:56:21;;;;;;;4.95;2.00;;;;;;;29.32;29.82;100884.56;5055498;28;20067;-78
2021/05/31 05:59:26;;;;;;;6.07;1.80;;;;;;;29.46;29.86;100880.44;5056167;28;20102;-78
2021/05/31 06:02:31;;;;;;;6.93;1.70;;;;;;;30.93;28.30;100869.25;5056320;28;20048;-78
2021/05/31 06:05:36;;;;;;;5.43;1.65;;;;;;;31.73;27.37;100861.13;5055557;28;20048;-78
2021/05/31 06:08:40;;;;;;;5.78;1.50;;;;;;;32.00;26.52;100868.38;5055250;28;20487;-78
2021/05/31 06:11:44;;;;;;;5.20;1.58;;;;;;;31.45;26.82;100871.34;5055892;28;20431;-78
2021/05/31 06:14:49;;;;;;;4.60;1.55;;;;;;;31.95;25.87;100867.44;5055862;28;20060;-78
2021/05/31 06:17:53;;;;;;;7.10;1.65;;;;;;;34.54;23.23;100861.06;5043172;28;20396;-78
2021/05/31 06:20:58;;;;;;;5.72;1.60;;;;;;;33.00;24.88;100875.03;5054978;28;20055;-78
2021/05/31 06:24:03;;;;;;;5.82;1.67;;;;;;;32.84;24.59;100862.16;5055706;28;20052;-78
2021/05/31 06:27:07;;;;;;;4.90;1.95;;;;;;;32.28;24.68;100869.19;5055417;28;20056;-78
2021/05/31 06:30:13;;;;;;;3.35;1.50;;;;;;;34.73;22.23;100864.91;5055582;28;20393;-79
2021/05/31 06:33:18;;;;;;;4.75;1.55;;;;;;;34.91;22.82;100858.72;5055461;28;20044;-78
2021/05/31 06:36:23;;;;;;;5.47;2.10;;;;;;;33.32;23.54;100864.66;5055753;28;20052;-78
2021/05/31 06:39:27;;;;;;;3.30;1.40;;;;;;;33.34;24.02;100862.41;5055690;28;20060;-79
2021/05/31 06:42:32;;;;;;;4.40;1.60;;;;;;;34.52;23.49;100868.81;5055621;28;20130;-78
2021/05/31 06:45:37;;;;;;;6.85;1.80;;;;;;;35.98;21.54;100875.88;5055286;28;20056;-78
2021/05/31 06:48:41;;;;;;;4.20;1.83;;;;;;;34.95;21.66;100886.91;5054984;28;20071;-78
2021/05/31 06:51:45;;;;;;;4.38;1.60;;;;;;;34.98;22.27;100894.72;5055096;28;20055;-78
2021/05/31 06:54:49;;;;;;;3.90;1.60;;;;;;;35.53;21.46;100893.75;5055376;28;20048;-78
2021/05/31 06:57:54;;;;;;;3.20;1.60;;;;;;;37.60;20.12;100885.25;5055100;28;20056;-78
2021/05/31 07:00:59;;;;;;;4.18;1.55;;;;;;;35.62;20.83;100883.66;5055016;28;20103;-78
2021/05/31 07:04:03;;;;;;;3.90;1.70;;;;;;;34.93;22.11;100890.00;5054948;28;20048;-79
2021/05/31 07:07:08;;;;;;;5.10;1.52;;;;;;;34.77;21.91;100873.53;5053564;28;20056;-78
2021/05/31 07:10:14;;;;;;;3.08;1.50;;;;;;;35.37;21.14;100887.38;5054017;28;20068;-78
2021/05/31 07:13:20;;;;;;;4.75;1.58;;;;;;;36.13;21.22;100879.44;5054702;28;20056;-78
2021/05/31 07:16:24;;;;;;;4.72;1.80;;;;;;;36.24;20.73;100880.22;5054600;28;20040;-78
2021/05/31 07:19:29;;;;;;;3.67;2.15;;;;;;;36.26;20.98;100877.94;5054411;28;20040;-78
2021/05/31 07:22:34;;;;;;;7.63;1.85;;;;;;;35.97;20.66;100880.66;5054529;28;20044;-78
2021/05/31 07:25:38;;;;;;;4.43;1.80;;;;;;;38.08;19.11;100873.94;5054476;28;20048;-78
2021/05/31 07:28:42;;;;;;;4.88;1.60;;;;;;;37.88;18.90;100883.50;5054445;28;20052;-78
2021/05/31 07:31:47;;;;;;;7.25;1.60;;;;;;;36.23;19.67;100884.97;5054093;28;20044;-78
2021/05/31 07:34:51;;;;;;;4.85;1.90;;;;;;;34.74;21.52;100894.47;5054423;28;20048;-78
2021/05/31 07:37:57;;;;;;;4.18;1.75;;;;;;;35.10;21.22;100893.34;5054337;28;20048;-78
2021/05/31 07:41:02;;;;;;;4.05;1.25;;;;;;;35.17;20.90;100887.44;5054556;28;20505;-78
2021/05/31 07:44:06;;;;;;;6.82;1.67;;;;;;;33.81;21.92;100890.19;5054442;28;20119;-78
2021/05/31 07:47:10;;;;;;;5.43;1.35;;;;;;;35.78;19.73;100876.84;5054198;28;20052;-78
2021/05/31 07:50:16;;;;;;;4.05;1.33;;;;;;;37.43;18.27;100876.50;5053346;28;20051;-78
2021/05/31 07:53:21;;;;;;;3.83;1.38;;;;;;;34.87;20.91;100876.31;5054119;28;20044;-78
2021/05/31 07:56:27;;;;;;;2.83;1.60;;;;;;;32.58;22.70;100875.88;5054061;28;20052;-78
2021/05/31 07:59:31;;;;;;;3.10;1.40;;;;;;;33.35;21.83;100876.09;5054021;28;20056;-78
2021/05/31 08:02:36;;;;;;;4.97;1.77;;;;;;;28.42;27.62;100877.72;5053123;28;20048;-78
2021/05/31 08:05:40;;;;;;;4.45;1.67;;;;;;;26.70;30.54;100871.06;5053560;28;20060;-78
2021/05/31 08:08:45;;;;;;;4.55;1.70;;;;;;;26.98;29.39;100861.28;5052737;28;20499;-80
2021/05/31 08:11:50;;;;;;;4.95;1.90;;;;;;;28.00;28.02;100865.03;5053815;28;20064;-79
2021/05/31 08:14:54;;;;;;;6.07;1.90;;;;;;;28.12;28.19;100865.91;5053059;28;20052;-79
2021/05/31 08:17:58;;;;;;;3.28;1.90;;;;;;;26.99;29.54;100864.84;5053582;28;20055;-79
2021/05/31 08:21:03;;;;;;;5.25;1.98;;;;;;;26.38;30.82;100864.81;5052937;28;20052;-80
2021/05/31 08:24:08;;;;;;;5.72;1.88;;;;;;;25.01;32.32;100867.22;5053791;28;20071;-79
2021/05/31 08:27:13;;;;;;;6.07;1.90;;;;;;;25.20;33.17;100869.09;5053736;28;20052;-79
2021/05/31 08:30:18;;;;;;;5.50;1.55;;;;;;;24.92;31.86;100868.53;5053681;28;20056;-79
2021/05/31 08:33:22;;;;;;;4.03;1.70;;;;;;;24.80;32.84;100870.25;5053653;28;20070;-79
2021/05/31 08:36:27;;;;;;;7.85;2.42;;;;;;;24.70;32.68;100878.06;5053620;28;20052;-79
2021/05/31 08:39:31;;;;;;;4.45;1.67;;;;;;;24.70;32.45;100868.97;5053360;28;20060;-79
2021/05/31 08:42:38;;;;;;;7.57;1.50;;;;;;;24.65;32.02;100869.63;5052766;28;20056;-79
2021/05/31 08:45:42;;;;;;;6.50;1.70;;;;;;;24.96;30.80;100863.47;5052773;28;20056;-79
2021/05/31 08:48:46;;;;;;;4.05;1.65;;;;;;;25.02;31.42;100868.94;5053516;28;20064;-79
2021/05/31 08:51:51;;;;;;;4.93;2.08;;;;;;;24.48;32.50;100865.63;5053433;28;20048;-79
2021/05/31 08:54:55;;;;;;;6.70;2.25;;;;;;;24.69;33.31;100872.78;5053422;28;20048;-79
2021/05/31 08:58:01;;;;;;;7.30;2.08;;;;;;;24.14;33.01;100868.59;5053410;28;20048;-79
2021/05/31 09:01:06;;;;;;;14.95;2.17;;;;;;;23.75;33.83;100881.16;5053340;28;20048;-79
2021/05/31 09:04:13;;;;;;;5.50;2.25;;;;;;;24.03;32.60;100872.75;5053355;28;20060;-79
2021/05/31 09:07:21;;;;;;;6.15;1.80;;;;;;;24.67;32.41;100867.50;5053380;28;20048;-79
2021/05/31 09:10:25;;;;;;;5.07;1.90;;;;;;;24.46;31.65;100868.59;5053558;28;20048;-79
2021/05/31 09:13:37;;;;;;;6.25;1.48;;;;;;;24.52;31.60;100870.47;5053315;28;20052;-78
2021/05/31 09:16:42;;;;;;;4.82;1.85;;;;;;;24.69;31.47;100861.81;5053142;28;20483;-78
2021/05/31 09:19:48;;;;;;;5.80;1.88;;;;;;;24.88;32.13;100871.94;5053209;28;20052;-79
2021/05/31 09:22:55;;;;;;;3.97;1.50;;;;;;;24.46;31.84;100873.25;5053423;28;20048;-78
2021/05/31 09:26:03;;;;;;;3.78;1.80;;;;;;;23.84;33.29;100879.91;5053288;28;20048;-78
2021/05/31 09:29:08;;;;;;;4.03;1.80;;;;;;;24.13;33.06;100875.97;5053142;28;20068;-78
2021/05/31 09:32:13;;;;;;;5.03;1.67;;;;;;;24.61;32.79;100873.84;5056577;28;20060;-79
2021/05/31 09:35:22;;;;;;;6.57;1.85;;;;;;;24.79;32.96;100878.72;5056626;28;20056;-79
2021/05/31 09:38:27;;;;;;;8.07;2.08;;;;;;;24.31;33.01;100867.13;5056476;28;20048;-79
2021/05/31 09:41:33;;;;;;;9.20;2.30;;;;;;;24.70;31.37;100877.22;5056554;28;20380;-79
2021/05/31 09:44:45;;;;;;;3.80;1.80;;;;;;;24.72;31.53;100862.22;5056473;28;20052;-78
2021/05/31 09:47:50;;;;;;;3.03;1.55;;;;;;;24.77;31.83;100856.06;5056365;28;20048;-78
2021/05/31 09:50:59;;;;;;;8.40;2.15;;;;;;;24.79;32.82;100852.09;5056293;28;20063;-78
2021/05/31 09:54:04;;;;;;;5.88;1.83;;;;;;;24.48;32.58;100862.88;5056325;28;20056;-78
2021/05/31 09:57:27;;;;;;;6.32;1.77;;;;;;;24.81;33.57;100866.47;5056185;28;20040;-79
2021/05/31 10:00:32;;;;;;;7.90;1.90;;;;;;;24.62;32.47;100849.97;5056060;28;20052;-78
2021/05/31 10:04:08;;;;;;;3.63;2.00;;;;;;;24.04;32.97;100852.53;5056121;28;20072;-79
2021/05/31 10:10:23;;;;;;;5.82;2.30;;;;;;;24.33;32.67;100863.09;5054912;28;20167;-78
2021/05/31 10:13:29;;;;;;;4.32;1.60;;;;;;;24.52;32.91;100861.38;5055124;28;20068;-78
2021/05/31 10:16:35;;;;;;;7.15;2.38;;;;;;;24.09;33.08;100849.19;5055007;28;20467;-78
2021/05/31 10:19:41;;;;;;;5.80;2.13;;;;;;;24.00;32.55;100856.72;5055934;28;20059;-79
2021/05/31 10:22:46;;;;;;;9.73;2.30;;;;;;;23.99;33.32;100855.03;5055683;28;20071;-78
2021/05/31 10:25:57;;;;;;;6.35;2.33;;;;;;;23.78;32.82;100855.22;5054905;28;20392;-78
2021/05/31 10:29:04;;;;;;;3.65;1.83;;;;;;;24.28;32.23;100848.31;5055497;28;20048;-78
2021/05/31 10:32:10;;;;;;;4.03;2.10;;;;;;;24.78;32.69;100844.06;5055383;28;20052;-78
2021/05/31 10:35:20;;;;;;;5.25;2.08;;;;;;;24.45;32.25;100846.84;5055431;28;20491;-79
2021/05/31 10:38:31;;;;;;;4.80;2.20;;;;;;;24.01;32.27;100846.59;5055149;28;20048;-78
2021/05/31 10:41:38;;;;;;;6.03;2.47;;;;;;;23.71;32.83;100846.97;5055257;28;20061;-78
2021/05/31 10:44:43;;;;;;;5.90;1.95;;;;;;;23.73;33.49;100849.50;5055246;28;20048;-78
2021/05/31 10:48:15;;;;;;;6.15;2.15;;;;;;;24.34;32.61;100845.56;5054115;28;20502;-78
2021/05/31 10:51:29;;;;;;;7.63;2.05;;;;;;;23.67;33.42;100850.34;5055125;28;20048;-78
2021/05/31 10:54:36;;;;;;;4.95;2.40;;;;;;;23.20;34.13;100841.13;5055146;28;20479;-79
2021/05/31 10:57:40;;;;;;;5.75;2.40;;;;;;;23.55;34.45;100844.63;5055052;28;20052;-78
2021/05/31 11:00:53;;;;;;;4.90;2.05;;;;;;;23.53;33.26;100826.72;5055311;28;20055;-78
2021/05/31 11:04:15;;;;;;;4.13;2.00;;;;;;;23.85;33.58;100842.34;5054658;28;20064;-79
2021/05/31 11:07:26;;;;;;;5.85;2.40;;;;;;;23.81;34.67;100828.22;5055115;28;20052;-78
2021/05/31 11:10:32;;;;;;;7.68;2.50;;;;;;;23.70;34.73;100828.84;5054778;28;20052;-78
2021/05/31 11:13:37;;;;;;;7.78;2.78;;;;;;;23.72;34.77;100834.97;5053858;28;20055;-79
2021/05/31 11:16:56;;;;;;;6.32;2.67;;;;;;;23.57;34.53;100830.72;5054954;28;20048;-79
2021/05/31 11:20:11;;;;;;;6.15;2.38;;;;;;;23.37;35.57;100827.94;5054630;28;20052;-79
2021/05/31 11:23:26;;;;;;;5.80;2.22;;;;;;;23.52;35.79;100825.88;5054484;28;20111;-78
2021/05/31 11:26:37;;;;;;;4.70;2.78;;;;;;;23.52;34.93;100825.00;5054401;28;20048;-78
2021/05/31 11:29:41;;;;;;;7.53;2.60;;;;;;;23.21;34.44;100830.97;5054193;28;20049;-79
2021/05/31 11:32:46;;;;;;;7.60;2.70;;;;;;;23.22;34.40;100825.31;5054203;28;20503;-78
2021/05/31 11:35:50;;;;;;;5.38;2.20;;;;;;;23.59;34.00;100815.75;5054329;28;20423;-78
2021/05/31 11:38:55;;;;;;;4.75;1.95;;;;;;;23.91;33.88;100808.63;5054251;28;20048;-78
2021/05/31 11:41:59;;;;;;;6.38;2.00;;;;;;;24.08;33.88;100803.59;5054232;28;20044;-78
2021/05/31 11:45:04;;;;;;;7.85;1.92;;;;;;;24.08;33.90;100804.44;5054178;28;20048;-78
2021/05/31 11:48:14;;;;;;;4.38;1.92;;;;;;;24.18;33.83;100799.38;5054090;28;20044;-78
2021/05/31 11:51:19;;;;;;;10.38;2.83;;;;;;;24.42;33.62;100795.94;5054431;28;20056;-78
2021/05/31 11:54:24;;;;;;;4.15;1.98;;;;;;;24.39;33.62;100796.38;5052733;28;20052;-79
2021/05/31 11:57:31;;;;;;;5.60;2.15;;;;;;;24.58;32.24;100794.66;5053934;28;20055;-79
2021/05/31 12:00:40;;;;;;;4.13;1.73;;;;;;;24.53;33.26;100791.72;5053962;28;20530;-78
2021/05/31 12:03:45;;;;;;;6.80;2.00;;;;;;;24.44;31.42;100793.00;5053956;28;20067;-78
2021/05/31 12:07:22;;;;;;;4.45;2.00;;;;;;;24.72;31.24;100781.72;5053157;28;20052;-78
2021/05/31 12:10:26;;;;;;;3.72;2.10;;;;;;;24.88;32.62;100784.91;5053760;28;20079;-78
2021/05/31 12:13:33;;;;;;;4.15;2.15;;;;;;;24.33;32.46;100778.03;5052832;28;20056;-78
2021/05/31 12:16:38;;;;;;;7.35;2.13;;;;;;;24.37;32.56;100772.94;5053421;28;20380;-78
2021/05/31 12:19:46;;;;;;;6.40;2.25;;;;;;;24.40;33.37;100775.28;5053809;28;20052;-78
2021/05/31 12:22:51;;;;;;;3.92;2.10;;;;;;;24.62;33.32;100773.09;5053762;28;20056;-78
2021/05/31 12:26:01;;;;;;;5.68;2.35;;;;;;;24.55;32.65;100768.50;5053443;28;20396;-78
2021/05/31 12:29:14;;;;;;;6.03;1.88;;;;;;;24.73;32.54;100770.53;5053683;28;20052;-79
2021/05/31 12:32:21;;;;;;;3.80;1.90;;;;;;;24.59;33.07;100757.91;5053604;28;20044;-78
2021/05/31 12:35:26;;;;;;;5.10;2.08;;;;;;;24.49;32.74;100752.88;5052815;28;20052;-79
2021/05/31 12:38:30;;;;;;;7.78;2.30;;;;;;;24.09;34.25;100745.78;5053277;28;20052;-78
2021/05/31 12:41:35;;;;;;;7.43;2.10;;;;;;;23.81;33.96;100737.75;5052741;28;20052;-78
2021/05/31 12:44:40;;;;;;;3.55;2.10;;;;;;;23.74;33.19;100742.41;5053514;28;20052;-78
2021/05/31 12:47:47;;;;;;;5.25;2.22;;;;;;;23.82;33.45;100744.09;5053427;28;20380;-78
2021/05/31 12:50:53;;;;;;;4.82;1.95;;;;;;;23.92;33.72;100742.59;5053510;28;20052;-79
2021/05/31 12:54:02;;;;;;;5.47;2.15;;;;;;;23.59;33.62;100744.50;5053324;28;20427;-79
2021/05/31 12:57:09;;;;;;;7.78;2.17;;;;;;;23.60;33.48;100735.19;5053381;28;20060;-79
2021/05/31 13:00:34;;;;;;;5.95;2.85;;;;;;;23.57;34.17;100734.78;5053335;28;20116;-78
2021/05/31 13:03:38;;;;;;;6.45;1.90;;;;;;;23.72;33.89;100736.28;5053418;28;20044;-79
2021/05/31 13:06:46;;;;;;;5.78;1.92;;;;;;;23.64;33.59;100736.47;5055407;28;20396;-79
2021/05/31 13:10:03;;;;;;;5.13;2.30;;;;;;;23.52;33.43;100732.69;5056368;28;20056;-78
2021/05/31 13:13:21;;;;;;;6.25;2.20;;;;;;;23.65;33.60;100729.94;5057125;28;20487;-78
2021/05/31 13:16:27;;;;;;;5.78;2.08;;;;;;;23.71;32.35;100736.47;5057029;28;20052;-78
2021/05/31 13:19:35;;;;;;;3.70;1.85;;;;;;;23.72;32.94;100729.94;5056927;28;20044;-78
2021/05/31 13:22:40;;;;;;;5.45;1.80;;;;;;;23.72;32.65;100728.06;5056971;28;20384;-78
2021/05/31 13:25:50;;;;;;;4.13;2.03;;;;;;;23.61;32.18;100720.44;5056887;28;20479;-78
2021/05/31 13:28:56;;;;;;;6.40;2.20;;;;;;;23.68;33.00;100725.91;5056939;28;20072;-78
2021/05/31 13:32:08;;;;;;;4.70;2.03;;;;;;;23.81;34.01;100721.28;5055977;28;20095;-78
2021/05/31 13:35:12;;;;;;;4.07;1.88;;;;;;;24.00;33.89;100718.75;5056711;28;20575;-78
2021/05/31 13:38:16;;;;;;;4.55;2.10;;;;;;;24.13;33.41;100713.28;5056694;28;20479;-79
2021/05/31 13:41:44;;;;;;;2.88;1.77;;;;;;;24.22;32.04;100714.75;5055854;28;20056;-78
2021/05/31 13:44:49;;;;;;;5.05;2.05;;;;;;;24.12;32.12;100700.63;5055557;28;20052;-78
2021/05/31 13:47:53;;;;;;;5.75;1.80;;;;;;;24.12;31.62;100692.41;5056431;28;20044;-78
2021/05/31 13:51:00;;;;;;;3.88;1.75;;;;;;;24.22;32.83;100690.06;5056401;28;20048;-79
2021/05/31 13:54:05;;;;;;;7.15;1.83;;;;;;;24.03;32.27;100679.91;5056309;28;20392;-78
2021/05/31 13:57:09;;;;;;;5.30;1.73;;;;;;;24.08;33.03;100691.97;5056576;28;20068;-78
2021/05/31 14:00:16;;;;;;;5.32;2.10;;;;;;;24.04;32.13;100695.31;5056413;28;20044;-78
2021/05/31 14:03:20;;;;;;;4.78;2.17;;;;;;;23.94;32.88;100682.91;5056372;28;20052;-78
2021/05/31 14:06:25;;;;;;;5.05;2.38;;;;;;;23.82;33.00;100687.34;5055555;28;20060;-78
2021/05/31 14:09:32;;;;;;;5.32;2.05;;;;;;;23.80;33.71;100683.94;5055831;28;20068;-79
2021/05/31 14:12:37;;;;;;;5.57;2.45;;;;;;;23.90;32.81;100686.25;5055948;28;20483;-78
2021/05/31 14:15:41;;;;;;;4.50;2.10;;;;;;;24.00;33.13;100675.69;5055755;28;20048;-78
2021/05/31 14:18:46;;;;;;;6.35;2.67;;;;;;;24.08;32.72;100672.78;5054896;28;20059;-78
2021/05/31 14:21:50;;;;;;;5.70;2.08;;;;;;;24.20;33.29;100675.69;5055878;28;20095;-78
2021/05/31 14:24:55;;;;;;;6.75;2.03;;;;;;;24.19;32.53;100663.91;5055778;28;20068;-78
2021/05/31 14:27:59;;;;;;;5.28;1.98;;;;;;;24.17;33.55;100662.41;5055476;28;20503;-78
2021/05/31 14:31:04;;;;;;;5.13;1.70;;;;;;;24.15;33.10;100670.00;5055720;28;20388;-78
2021/05/31 14:34:08;;;;;;;4.25;2.45;;;;;;;24.01;33.88;100665.56;5055543;28;20055;-78
2021/05/31 14:37:13;;;;;;;7.15;2.08;;;;;;;24.19;33.39;100663.91;5055608;28;20049;-78